sensor_id;sensor_type;location;lat;lon;timestamp;temperature;humidity
44731;DHT22;30458;47.448;19.032;2023-03-11T00:05:31;11.70;99.90
44731;DHT22;30458;47.448;19.032;2023-03-11T00:15:35;11.60;99.90
44731;DHT22;30458;47.448;19.032;2023-03-11T00:25:42;11.60;99.90
44731;DHT22;30458;47.448;19.032;2023-03-11T00:35:46;11.40;99.90
44731;DHT22;30458;47.448;19.032;2023-03-11T00:45:50;11.40;99.90
44731;DHT22;30458;47.448;19.032;2023-03-11T00:55:50;11.50;99.90
44731;DHT22;30458;47.448;19.032;2023-03-11T01:05:54;11.50;99.90
44731;DHT22;30458;47.448;19.032;2023-03-11T01:15:55;11.50;99.90
44731;DHT22;30458;47.448;19.032;2023-03-11T01:25:56;11.40;99.90
44731;DHT22;30458;47.448;19.032;2023-03-11T01:36:00;11.30;99.90
44731;DHT22;30458;47.448;19.032;2023-03-11T01:46:06;11.10;99.90
44731;DHT22;30458;47.448;19.032;2023-03-11T01:56:08;11.00;99.90
44731;DHT22;30458;47.448;19.032;2023-03-11T02:06:18;11.00;99.50
44731;DHT22;30458;47.448;19.032;2023-03-11T02:16:20;10.90;99.50
44731;DHT22;30458;47.448;19.032;2023-03-11T02:37:08;11.00;98.70
44731;DHT22;30458;47.448;19.032;2023-03-11T02:47:17;11.00;98.50
44731;DHT22;30458;47.448;19.032;2023-03-11T02:57:21;11.00;97.80
44731;DHT22;30458;47.448;19.032;2023-03-11T03:07:21;11.00;96.50
44731;DHT22;30458;47.448;19.032;2023-03-11T03:17:25;11.10;95.90
44731;DHT22;30458;47.448;19.032;2023-03-11T03:27:26;11.10;95.10
44731;DHT22;30458;47.448;19.032;2023-03-11T03:37:27;11.10;94.30
44731;DHT22;30458;47.448;19.032;2023-03-11T03:47:32;11.00;93.00
44731;DHT22;30458;47.448;19.032;2023-03-11T03:57:33;11.00;91.30
44731;DHT22;30458;47.448;19.032;2023-03-11T04:07:35;10.70;91.10
44731;DHT22;30458;47.448;19.032;2023-03-11T04:17:38;10.60;90.60
44731;DHT22;30458;47.448;19.032;2023-03-11T04:27:41;10.50;90.80
44731;DHT22;30458;47.448;19.032;2023-03-11T04:37:46;10.30;90.20
44731;DHT22;30458;47.448;19.032;2023-03-11T04:47:51;10.20;89.50
44731;DHT22;30458;47.448;19.032;2023-03-11T04:57:55;10.10;84.80
44731;DHT22;30458;47.448;19.032;2023-03-11T05:07:57;9.70;79.90
44731;DHT22;30458;47.448;19.032;2023-03-11T05:17:59;9.40;80.90
44731;DHT22;30458;47.448;19.032;2023-03-11T05:28:02;9.10;81.70
44731;DHT22;30458;47.448;19.032;2023-03-11T05:38:14;9.10;82.30
44731;DHT22;30458;47.448;19.032;2023-03-11T05:48:18;8.80;83.50
44731;DHT22;30458;47.448;19.032;2023-03-11T05:58:24;8.60;85.00
44731;DHT22;30458;47.448;19.032;2023-03-11T06:08:25;8.60;84.90
44731;DHT22;30458;47.448;19.032;2023-03-11T06:18:27;8.30;83.40
44731;DHT22;30458;47.448;19.032;2023-03-11T06:28:28;8.30;84.10
44731;DHT22;30458;47.448;19.032;2023-03-11T06:38:32;8.20;84.60
44731;DHT22;30458;47.448;19.032;2023-03-11T06:48:33;8.20;84.30
44731;DHT22;30458;47.448;19.032;2023-03-11T06:58:36;8.00;82.50
44731;DHT22;30458;47.448;19.032;2023-03-11T07:08:37;7.90;82.40
44731;DHT22;30458;47.448;19.032;2023-03-11T07:18:44;8.00;81.40
44731;DHT22;30458;47.448;19.032;2023-03-11T07:28:48;8.10;80.00
44731;DHT22;30458;47.448;19.032;2023-03-11T07:39:00;7.90;78.30
44731;DHT22;30458;47.448;19.032;2023-03-11T07:49:05;7.70;79.40
44731;DHT22;30458;47.448;19.032;2023-03-11T07:59:09;7.70;79.40
44731;DHT22;30458;47.448;19.032;2023-03-11T08:09:10;7.90;78.80
44731;DHT22;30458;47.448;19.032;2023-03-11T08:19:13;8.10;78.10
44731;DHT22;30458;47.448;19.032;2023-03-11T08:29:16;9.80;74.90
44731;DHT22;30458;47.448;19.032;2023-03-11T08:39:17;9.60;74.30
44731;DHT22;30458;47.448;19.032;2023-03-11T08:49:18;10.00;73.50
44731;DHT22;30458;47.448;19.032;2023-03-11T08:59:21;10.00;72.40
44731;DHT22;30458;47.448;19.032;2023-03-11T09:09:22;10.20;72.70
44731;DHT22;30458;47.448;19.032;2023-03-11T09:19:23;9.10;74.50
44731;DHT22;30458;47.448;19.032;2023-03-11T09:29:24;9.30;75.40
44731;DHT22;30458;47.448;19.032;2023-03-11T09:39:25;9.60;74.40
44731;DHT22;30458;47.448;19.032;2023-03-11T09:59:47;8.40;75.70
44731;DHT22;30458;47.448;19.032;2023-03-11T10:09:56;8.50;78.40
44731;DHT22;30458;47.448;19.032;2023-03-11T10:40:35;8.20;77.40
44731;DHT22;30458;47.448;19.032;2023-03-11T11:01:13;7.80;80.00
44731;DHT22;30458;47.448;19.032;2023-03-11T11:11:22;7.80;80.20
44731;DHT22;30458;47.448;19.032;2023-03-11T11:21:33;8.60;78.60
44731;DHT22;30458;47.448;19.032;2023-03-11T11:31:38;8.90;76.90
44731;DHT22;30458;47.448;19.032;2023-03-11T11:41:39;9.00;77.30
44731;DHT22;30458;47.448;19.032;2023-03-11T11:51:46;9.00;76.90
44731;DHT22;30458;47.448;19.032;2023-03-11T12:02:28;9.00;77.10
44731;DHT22;30458;47.448;19.032;2023-03-11T12:12:47;9.00;76.70
44731;DHT22;30458;47.448;19.032;2023-03-11T12:33:16;8.90;75.90
44731;DHT22;30458;47.448;19.032;2023-03-11T12:53:46;8.70;75.40
44731;DHT22;30458;47.448;19.032;2023-03-11T13:14:34;8.70;76.70
44731;DHT22;30458;47.448;19.032;2023-03-11T13:24:38;9.00;74.10
44731;DHT22;30458;47.448;19.032;2023-03-11T13:45:02;8.70;74.80
44731;DHT22;30458;47.448;19.032;2023-03-11T13:55:16;8.90;73.90
44731;DHT22;30458;47.448;19.032;2023-03-11T14:05:22;8.70;74.00
44731;DHT22;30458;47.448;19.032;2023-03-11T14:15:25;8.40;75.10
44731;DHT22;30458;47.448;19.032;2023-03-11T14:25:28;8.30;75.00
44731;DHT22;30458;47.448;19.032;2023-03-11T14:35:34;8.20;75.50
44731;DHT22;30458;47.448;19.032;2023-03-11T14:45:37;8.10;75.80
44731;DHT22;30458;47.448;19.032;2023-03-11T14:55:57;8.00;76.10
44731;DHT22;30458;47.448;19.032;2023-03-11T15:05:59;7.90;75.40
44731;DHT22;30458;47.448;19.032;2023-03-11T15:16:19;7.90;74.90
44731;DHT22;30458;47.448;19.032;2023-03-11T15:26:29;7.90;75.80
44731;DHT22;30458;47.448;19.032;2023-03-11T15:36:33;8.00;75.60
44731;DHT22;30458;47.448;19.032;2023-03-11T15:46:36;7.80;75.80
44731;DHT22;30458;47.448;19.032;2023-03-11T15:56:41;7.70;75.10
44731;DHT22;30458;47.448;19.032;2023-03-11T16:06:45;7.60;75.20
44731;DHT22;30458;47.448;19.032;2023-03-11T16:16:46;7.50;75.20
44731;DHT22;30458;47.448;19.032;2023-03-11T16:26:47;7.50;75.60
44731;DHT22;30458;47.448;19.032;2023-03-11T16:36:48;7.30;75.30
44731;DHT22;30458;47.448;19.032;2023-03-11T16:46:52;6.90;73.50
44731;DHT22;30458;47.448;19.032;2023-03-11T16:56:55;6.80;74.10
44731;DHT22;30458;47.448;19.032;2023-03-11T17:06:58;6.50;74.80
44731;DHT22;30458;47.448;19.032;2023-03-11T17:16:58;6.50;75.70
44731;DHT22;30458;47.448;19.032;2023-03-11T17:27:03;6.60;76.90
44731;DHT22;30458;47.448;19.032;2023-03-11T17:37:06;6.50;78.60
44731;DHT22;30458;47.448;19.032;2023-03-11T17:47:08;6.50;79.20
44731;DHT22;30458;47.448;19.032;2023-03-11T17:57:09;6.30;79.50
44731;DHT22;30458;47.448;19.032;2023-03-11T18:07:11;6.40;79.30
44731;DHT22;30458;47.448;19.032;2023-03-11T18:17:12;6.30;80.00
44731;DHT22;30458;47.448;19.032;2023-03-11T18:27:18;6.20;79.30
44731;DHT22;30458;47.448;19.032;2023-03-11T18:37:19;6.20;79.20
44731;DHT22;30458;47.448;19.032;2023-03-11T18:47:20;6.00;79.70
44731;DHT22;30458;47.448;19.032;2023-03-11T18:57:21;6.00;79.70
44731;DHT22;30458;47.448;19.032;2023-03-11T19:07:21;6.00;80.80
44731;DHT22;30458;47.448;19.032;2023-03-11T19:17:22;5.90;81.40
44731;DHT22;30458;47.448;19.032;2023-03-11T19:27:26;5.80;82.70
44731;DHT22;30458;47.448;19.032;2023-03-11T19:37:29;5.80;82.90
44731;DHT22;30458;47.448;19.032;2023-03-11T19:47:33;5.90;83.00
44731;DHT22;30458;47.448;19.032;2023-03-11T19:57:34;5.80;83.20
44731;DHT22;30458;47.448;19.032;2023-03-11T20:07:35;5.50;84.40
44731;DHT22;30458;47.448;19.032;2023-03-11T20:17:36;5.60;84.40
44731;DHT22;30458;47.448;19.032;2023-03-11T20:27:39;5.30;85.30
44731;DHT22;30458;47.448;19.032;2023-03-11T20:37:41;5.40;85.50
44731;DHT22;30458;47.448;19.032;2023-03-11T20:47:45;5.20;86.40
44731;DHT22;30458;47.448;19.032;2023-03-11T20:57:48;5.10;86.90
44731;DHT22;30458;47.448;19.032;2023-03-11T21:07:52;5.00;87.40
44731;DHT22;30458;47.448;19.032;2023-03-11T21:17:55;4.90;88.00
44731;DHT22;30458;47.448;19.032;2023-03-11T21:27:58;5.20;88.10
44731;DHT22;30458;47.448;19.032;2023-03-11T21:37:59;5.20;88.20
44731;DHT22;30458;47.448;19.032;2023-03-11T21:48:00;5.30;88.10
44731;DHT22;30458;47.448;19.032;2023-03-11T21:58:01;5.20;88.20
44731;DHT22;30458;47.448;19.032;2023-03-11T22:08:02;5.00;89.00
44731;DHT22;30458;47.448;19.032;2023-03-11T22:18:05;5.00;88.70
44731;DHT22;30458;47.448;19.032;2023-03-11T22:28:08;5.20;88.00
44731;DHT22;30458;47.448;19.032;2023-03-11T22:38:12;5.10;88.80
44731;DHT22;30458;47.448;19.032;2023-03-11T22:48:20;4.70;89.90
44731;DHT22;30458;47.448;19.032;2023-03-11T22:58:21;4.80;89.20
44731;DHT22;30458;47.448;19.032;2023-03-11T23:08:22;4.80;89.30
44731;DHT22;30458;47.448;19.032;2023-03-11T23:18:23;4.40;90.40
44731;DHT22;30458;47.448;19.032;2023-03-11T23:28:26;4.30;90.80
44731;DHT22;30458;47.448;19.032;2023-03-11T23:38:27;4.40;90.60
44731;DHT22;30458;47.448;19.032;2023-03-11T23:48:33;4.30;91.00
44731;DHT22;30458;47.448;19.032;2023-03-11T23:58:34;4.30;90.80
